GAP2204 RPVR-RPLL
Flight info
| Callsign | GAP2204 |
|---|---|
| Flight time | 0h 44m |
| Altitude | 26000 |
| Route | MINOR3A MINOR B473 LAIYA LAIYA5R |
| Aircraft | A320/M-SDE3FGHIRWY/LB1 |
Departure
| Time | 2026-04-22 09:00 |
|---|---|
| Airport | Roxas Airport (RPVR) |
Arrival
| Time | 2026-04-22 09:44 |
|---|---|
| Airport | Ninoy Aquino International Airport (RPLL) |
| Time | Latitude | Longitude | Altitude | Speed | Heading |
|---|---|---|---|---|---|
| 2026-04-22 08:34 | 11.60083 | 122.74931 | 23 ft | 0 kts | 265° |
| 2026-04-22 08:36 | 11.60130 | 122.74898 | 23 ft | 0 kts | 265° |
| 2026-04-22 08:51 | 11.60130 | 122.74899 | 23 ft | 0 kts | 265° |
| 2026-04-22 08:51 | 11.60129 | 122.74905 | 23 ft | 2 kts | 305° |
| 2026-04-22 08:51 | 11.60121 | 122.74918 | 23 ft | 2 kts | 290° |
| 2026-04-22 08:52 | 11.60115 | 122.74932 | 23 ft | 1 kts | 296° |
| 2026-04-22 08:52 | 11.60112 | 122.74937 | 23 ft | 0 kts | 281° |
| 2026-04-22 08:52 | 11.60112 | 122.74941 | 23 ft | 0 kts | 225° |
| 2026-04-22 08:52 | 11.60117 | 122.74944 | 23 ft | 0 kts | 178° |
| 2026-04-22 08:53 | 11.60121 | 122.74944 | 23 ft | 0 kts | 140° |
| 2026-04-22 08:53 | 11.60126 | 122.74939 | 23 ft | 0 kts | 144° |
| 2026-04-22 08:55 | 11.60120 | 122.74944 | 23 ft | 4 kts | 144° |
| 2026-04-22 08:55 | 11.60089 | 122.74983 | 23 ft | 9 kts | 100° |
| 2026-04-22 08:55 | 11.60086 | 122.75058 | 22 ft | 13 kts | 117° |
| 2026-04-22 08:55 | 11.59990 | 122.75131 | 21 ft | 21 kts | 144° |
| 2026-04-22 08:56 | 11.59851 | 122.75232 | 21 ft | 27 kts | 145° |
| 2026-04-22 08:56 | 11.59682 | 122.75352 | 23 ft | 31 kts | 144° |
| 2026-04-22 08:56 | 11.59492 | 122.75490 | 24 ft | 34 kts | 143° |
| 2026-04-22 08:56 | 11.59301 | 122.75627 | 23 ft | 32 kts | 146° |
| 2026-04-22 08:57 | 11.59142 | 122.75755 | 21 ft | 16 kts | 134° |
| 2026-04-22 08:57 | 11.59122 | 122.75751 | 21 ft | 7 kts | 326° |
| 2026-04-22 08:57 | 11.59141 | 122.75741 | 21 ft | 0 kts | 325° |
| 2026-04-22 08:59 | 11.59297 | 122.75630 | 23 ft | 64 kts | 324° |
| 2026-04-22 08:59 | 11.59866 | 122.75221 | 21 ft | 131 kts | 325° |
| 2026-04-22 08:59 | 11.60731 | 122.74600 | 238 ft | 161 kts | 327° |
| 2026-04-22 09:00 | 11.61654 | 122.73964 | 756 ft | 163 kts | 337° |
| 2026-04-22 09:00 | 11.62732 | 122.73819 | 1323 ft | 156 kts | 14° |
| 2026-04-22 09:00 | 11.63775 | 122.74080 | 1873 ft | 159 kts | 15° |
| 2026-04-22 09:00 | 11.64935 | 122.73953 | 2213 ft | 185 kts | 338° |
| 2026-04-22 09:01 | 11.66075 | 122.73183 | 2629 ft | 205 kts | 326° |
| 2026-04-22 09:01 | 11.67248 | 122.72234 | 3050 ft | 223 kts | 325° |
| 2026-04-22 09:01 | 11.68539 | 122.71223 | 3418 ft | 246 kts | 326° |
| 2026-04-22 09:01 | 11.69967 | 122.70154 | 3906 ft | 264 kts | 327° |
| 2026-04-22 09:02 | 11.71520 | 122.69029 | 4456 ft | 279 kts | 327° |
| 2026-04-22 09:02 | 11.73119 | 122.67893 | 5207 ft | 284 kts | 327° |
| 2026-04-22 09:02 | 11.74752 | 122.66743 | 6005 ft | 288 kts | 327° |
| 2026-04-22 09:02 | 11.76397 | 122.65593 | 6795 ft | 291 kts | 326° |
| 2026-04-22 09:03 | 11.78086 | 122.64414 | 7592 ft | 294 kts | 326° |
| 2026-04-22 09:03 | 11.79758 | 122.63248 | 8363 ft | 296 kts | 326° |
| 2026-04-22 09:03 | 11.81453 | 122.62068 | 9150 ft | 297 kts | 325° |
| 2026-04-22 09:03 | 11.83176 | 122.60870 | 9927 ft | 298 kts | 325° |
| 2026-04-22 09:04 | 11.84877 | 122.59686 | 10547 ft | 304 kts | 324° |
| 2026-04-22 09:04 | 11.86677 | 122.58430 | 10862 ft | 321 kts | 324° |
| 2026-04-22 09:04 | 11.88583 | 122.57101 | 11179 ft | 337 kts | 324° |
| 2026-04-22 09:04 | 11.90536 | 122.55741 | 11672 ft | 344 kts | 324° |
| 2026-04-22 09:05 | 11.92540 | 122.54347 | 12283 ft | 347 kts | 324° |
| 2026-04-22 09:05 | 11.94567 | 122.52938 | 12890 ft | 349 kts | 324° |
| 2026-04-22 09:05 | 11.96589 | 122.51529 | 13462 ft | 352 kts | 324° |
| 2026-04-22 09:05 | 11.98643 | 122.50098 | 13999 ft | 355 kts | 324° |
| 2026-04-22 09:06 | 12.00700 | 122.48663 | 14518 ft | 359 kts | 324° |
| 2026-04-22 09:06 | 12.02777 | 122.47214 | 15028 ft | 362 kts | 325° |
| 2026-04-22 09:06 | 12.04888 | 122.45742 | 15540 ft | 365 kts | 325° |
| 2026-04-22 09:06 | 12.06999 | 122.44270 | 16045 ft | 367 kts | 326° |
| 2026-04-22 09:07 | 12.09115 | 122.42794 | 16547 ft | 369 kts | 326° |
| 2026-04-22 09:07 | 12.11267 | 122.41295 | 17031 ft | 372 kts | 326° |
| 2026-04-22 09:07 | 12.13414 | 122.39798 | 17484 ft | 375 kts | 326° |
| 2026-04-22 09:07 | 12.15593 | 122.38281 | 17915 ft | 378 kts | 326° |
| 2026-04-22 09:08 | 12.17769 | 122.36764 | 18350 ft | 380 kts | 326° |
| 2026-04-22 09:08 | 12.19962 | 122.35235 | 18766 ft | 383 kts | 326° |
| 2026-04-22 09:08 | 12.22182 | 122.33685 | 19166 ft | 385 kts | 326° |
| 2026-04-22 09:08 | 12.24411 | 122.32130 | 19563 ft | 388 kts | 326° |
| 2026-04-22 09:09 | 12.26645 | 122.30569 | 19970 ft | 390 kts | 326° |
| 2026-04-22 09:09 | 12.28885 | 122.29003 | 20394 ft | 391 kts | 326° |
| 2026-04-22 09:09 | 12.31127 | 122.27436 | 20791 ft | 392 kts | 326° |
| 2026-04-22 09:09 | 12.33388 | 122.25854 | 21168 ft | 394 kts | 326° |
| 2026-04-22 09:10 | 12.35673 | 122.24258 | 21548 ft | 396 kts | 326° |
| 2026-04-22 09:10 | 12.37949 | 122.22673 | 21940 ft | 397 kts | 326° |
| 2026-04-22 09:10 | 12.40232 | 122.21093 | 22434 ft | 395 kts | 326° |
| 2026-04-22 09:10 | 12.42518 | 122.19511 | 22957 ft | 392 kts | 325° |
| 2026-04-22 09:11 | 12.44761 | 122.17957 | 23418 ft | 392 kts | 325° |
| 2026-04-22 09:11 | 12.47013 | 122.16395 | 23861 ft | 392 kts | 325° |
| 2026-04-22 09:11 | 12.49285 | 122.14817 | 24295 ft | 393 kts | 325° |
| 2026-04-22 09:11 | 12.51556 | 122.13241 | 24691 ft | 394 kts | 325° |
| 2026-04-22 09:12 | 12.53837 | 122.11655 | 25061 ft | 396 kts | 325° |
| 2026-04-22 09:12 | 12.56103 | 122.10081 | 25448 ft | 398 kts | 325° |
| 2026-04-22 09:12 | 12.58396 | 122.08485 | 25778 ft | 400 kts | 325° |
| 2026-04-22 09:12 | 12.60712 | 122.06875 | 25825 ft | 401 kts | 325° |
| 2026-04-22 09:13 | 12.63031 | 122.05263 | 25830 ft | 401 kts | 325° |
| 2026-04-22 09:13 | 12.65325 | 122.03666 | 25832 ft | 401 kts | 325° |
| 2026-04-22 09:13 | 12.67659 | 122.02042 | 25833 ft | 401 kts | 325° |
| 2026-04-22 09:13 | 12.69970 | 122.00434 | 25834 ft | 400 kts | 325° |
| 2026-04-22 09:14 | 12.72288 | 121.98820 | 25835 ft | 401 kts | 325° |
| 2026-04-22 09:14 | 12.74589 | 121.97218 | 25838 ft | 401 kts | 325° |
| 2026-04-22 09:14 | 12.76906 | 121.95605 | 25840 ft | 401 kts | 325° |
| 2026-04-22 09:14 | 12.79241 | 121.93979 | 25840 ft | 401 kts | 325° |
| 2026-04-22 09:15 | 12.81560 | 121.92364 | 25841 ft | 401 kts | 324° |
| 2026-04-22 09:15 | 12.83854 | 121.90765 | 25841 ft | 401 kts | 324° |
| 2026-04-22 09:15 | 12.86192 | 121.89136 | 25841 ft | 401 kts | 324° |
| 2026-04-22 09:15 | 12.88493 | 121.87531 | 25841 ft | 401 kts | 324° |
| 2026-04-22 09:16 | 12.90817 | 121.85911 | 25842 ft | 401 kts | 324° |
| 2026-04-22 09:16 | 12.93125 | 121.84301 | 25842 ft | 400 kts | 324° |
| 2026-04-22 09:16 | 12.95414 | 121.82703 | 25843 ft | 400 kts | 324° |
| 2026-04-22 09:16 | 12.97735 | 121.81083 | 25842 ft | 400 kts | 324° |
| 2026-04-22 09:17 | 13.00028 | 121.79481 | 25845 ft | 400 kts | 324° |
| 2026-04-22 09:17 | 13.02323 | 121.77880 | 25845 ft | 400 kts | 324° |
| 2026-04-22 09:17 | 13.04645 | 121.76259 | 25845 ft | 400 kts | 324° |
| 2026-04-22 09:17 | 13.06946 | 121.74652 | 25846 ft | 400 kts | 324° |
| 2026-04-22 09:18 | 13.09247 | 121.73044 | 25846 ft | 401 kts | 324° |
| 2026-04-22 09:18 | 13.11567 | 121.71422 | 25843 ft | 401 kts | 324° |
| 2026-04-22 09:18 | 13.13854 | 121.69824 | 25839 ft | 401 kts | 324° |
| 2026-04-22 09:18 | 13.16195 | 121.68187 | 25838 ft | 401 kts | 324° |
| 2026-04-22 09:19 | 13.18500 | 121.66576 | 25837 ft | 400 kts | 324° |
| 2026-04-22 09:19 | 13.20812 | 121.64959 | 25837 ft | 400 kts | 324° |
| 2026-04-22 09:19 | 13.23119 | 121.63344 | 25837 ft | 400 kts | 324° |
| 2026-04-22 09:19 | 13.25424 | 121.61732 | 25836 ft | 400 kts | 324° |
| 2026-04-22 09:20 | 13.27721 | 121.60123 | 25835 ft | 400 kts | 324° |
| 2026-04-22 09:20 | 13.30006 | 121.58524 | 25834 ft | 400 kts | 324° |
| 2026-04-22 09:20 | 13.32313 | 121.56906 | 25834 ft | 400 kts | 324° |
| 2026-04-22 09:20 | 13.34621 | 121.55290 | 25835 ft | 400 kts | 324° |
| 2026-04-22 09:21 | 13.36921 | 121.53678 | 25835 ft | 400 kts | 324° |
| 2026-04-22 09:21 | 13.39210 | 121.52074 | 25836 ft | 400 kts | 324° |
| 2026-04-22 09:21 | 13.41530 | 121.50449 | 25836 ft | 400 kts | 324° |
| 2026-04-22 09:21 | 13.43838 | 121.48829 | 25838 ft | 400 kts | 324° |
| 2026-04-22 09:22 | 13.46134 | 121.47218 | 25733 ft | 400 kts | 324° |
| 2026-04-22 09:22 | 13.48417 | 121.45615 | 25260 ft | 398 kts | 324° |
| 2026-04-22 09:22 | 13.50704 | 121.44010 | 24700 ft | 397 kts | 324° |
| 2026-04-22 09:22 | 13.53010 | 121.42392 | 24146 ft | 394 kts | 324° |
| 2026-04-22 09:23 | 13.55226 | 121.40836 | 24006 ft | 380 kts | 324° |
| 2026-04-22 09:23 | 13.57365 | 121.39333 | 23888 ft | 366 kts | 324° |
| 2026-04-22 09:23 | 13.59453 | 121.37811 | 23489 ft | 362 kts | 323° |
| 2026-04-22 09:23 | 13.61466 | 121.36307 | 23087 ft | 357 kts | 322° |
| 2026-04-22 09:24 | 13.63469 | 121.34806 | 22683 ft | 353 kts | 322° |
| 2026-04-22 09:24 | 13.65448 | 121.33324 | 22282 ft | 349 kts | 322° |
| 2026-04-22 09:24 | 13.67390 | 121.31873 | 21910 ft | 346 kts | 322° |
| 2026-04-22 09:24 | 13.69346 | 121.30412 | 21517 ft | 343 kts | 322° |
| 2026-04-22 09:25 | 13.71255 | 121.28986 | 21131 ft | 341 kts | 322° |
| 2026-04-22 09:25 | 13.73178 | 121.27550 | 20729 ft | 339 kts | 323° |
| 2026-04-22 09:25 | 13.75090 | 121.26122 | 20326 ft | 337 kts | 323° |
| 2026-04-22 09:25 | 13.76989 | 121.24705 | 19932 ft | 336 kts | 323° |
| 2026-04-22 09:26 | 13.78857 | 121.23310 | 19543 ft | 334 kts | 323° |
| 2026-04-22 09:26 | 13.80735 | 121.21907 | 19144 ft | 333 kts | 324° |
| 2026-04-22 09:26 | 13.82622 | 121.20498 | 18738 ft | 331 kts | 324° |
| 2026-04-22 09:26 | 13.84463 | 121.19122 | 18345 ft | 330 kts | 324° |
| 2026-04-22 09:27 | 13.86338 | 121.17723 | 17946 ft | 329 kts | 324° |
| 2026-04-22 09:27 | 13.88180 | 121.16348 | 17547 ft | 327 kts | 325° |
| 2026-04-22 09:27 | 13.90008 | 121.14983 | 17161 ft | 326 kts | 325° |
| 2026-04-22 09:27 | 13.91855 | 121.13605 | 16758 ft | 325 kts | 325° |
| 2026-04-22 09:28 | 13.93690 | 121.12235 | 16352 ft | 324 kts | 324° |
| 2026-04-22 09:28 | 13.95515 | 121.10872 | 15963 ft | 324 kts | 324° |
| 2026-04-22 09:28 | 13.97343 | 121.09505 | 15549 ft | 323 kts | 324° |
| 2026-04-22 09:28 | 13.99160 | 121.08146 | 15150 ft | 322 kts | 324° |
| 2026-04-22 09:29 | 14.00970 | 121.06793 | 14749 ft | 321 kts | 324° |
| 2026-04-22 09:29 | 14.02759 | 121.05456 | 14357 ft | 320 kts | 324° |
| 2026-04-22 09:29 | 14.04587 | 121.04090 | 13945 ft | 319 kts | 324° |
| 2026-04-22 09:29 | 14.06371 | 121.02755 | 13548 ft | 318 kts | 324° |
| 2026-04-22 09:30 | 14.08145 | 121.01427 | 13168 ft | 316 kts | 324° |
| 2026-04-22 09:30 | 14.09921 | 121.00096 | 12790 ft | 314 kts | 324° |
| 2026-04-22 09:30 | 14.11701 | 120.98760 | 12394 ft | 312 kts | 324° |
| 2026-04-22 09:30 | 14.13466 | 120.97437 | 12019 ft | 310 kts | 325° |
| 2026-04-22 09:31 | 14.15201 | 120.96137 | 11835 ft | 300 kts | 325° |
| 2026-04-22 09:31 | 14.16856 | 120.94910 | 11735 ft | 289 kts | 327° |
| 2026-04-22 09:31 | 14.18544 | 120.93824 | 11501 ft | 283 kts | 331° |
| 2026-04-22 09:31 | 14.20230 | 120.92824 | 11152 ft | 278 kts | 331° |
| 2026-04-22 09:32 | 14.21905 | 120.91838 | 10812 ft | 271 kts | 332° |
| 2026-04-22 09:32 | 14.23529 | 120.90884 | 10490 ft | 270 kts | 332° |
| 2026-04-22 09:32 | 14.25135 | 120.89917 | 10338 ft | 261 kts | 327° |
| 2026-04-22 09:32 | 14.26327 | 120.88522 | 10193 ft | 256 kts | 292° |
| 2026-04-22 09:33 | 14.26512 | 120.86716 | 9958 ft | 260 kts | 258° |
| 2026-04-22 09:33 | 14.25781 | 120.85043 | 9654 ft | 258 kts | 238° |
| 2026-04-22 09:33 | 14.24823 | 120.83466 | 9356 ft | 258 kts | 238° |
| 2026-04-22 09:33 | 14.23890 | 120.81880 | 9072 ft | 257 kts | 239° |
| 2026-04-22 09:34 | 14.22986 | 120.80294 | 8776 ft | 256 kts | 240° |
| 2026-04-22 09:34 | 14.22102 | 120.78703 | 8454 ft | 255 kts | 243° |
| 2026-04-22 09:34 | 14.21668 | 120.76973 | 8100 ft | 253 kts | 277° |
| 2026-04-22 09:35 | 14.23647 | 120.74339 | 7525 ft | 238 kts | 335° |
| 2026-04-22 09:35 | 14.25125 | 120.73561 | 7249 ft | 236 kts | 335° |
| 2026-04-22 09:35 | 14.26580 | 120.72762 | 6967 ft | 235 kts | 334° |
| 2026-04-22 09:35 | 14.28009 | 120.71951 | 6679 ft | 234 kts | 333° |
| 2026-04-22 09:36 | 14.29415 | 120.71138 | 6409 ft | 232 kts | 333° |
| 2026-04-22 09:36 | 14.30856 | 120.70348 | 6107 ft | 230 kts | 343° |
| 2026-04-22 09:36 | 14.32393 | 120.70250 | 5777 ft | 223 kts | 19° |
| 2026-04-22 09:36 | 14.33691 | 120.71059 | 5480 ft | 218 kts | 51° |
| 2026-04-22 09:37 | 14.34490 | 120.72361 | 5241 ft | 213 kts | 62° |
| 2026-04-22 09:37 | 14.35187 | 120.73659 | 5112 ft | 201 kts | 62° |
| 2026-04-22 09:37 | 14.35872 | 120.74917 | 4801 ft | 199 kts | 61° |
| 2026-04-22 09:37 | 14.36553 | 120.76152 | 4494 ft | 197 kts | 61° |
| 2026-04-22 09:38 | 14.37224 | 120.77365 | 4219 ft | 192 kts | 61° |
| 2026-04-22 09:38 | 14.37873 | 120.78536 | 3970 ft | 185 kts | 61° |
| 2026-04-22 09:38 | 14.38501 | 120.79670 | 3740 ft | 181 kts | 61° |
| 2026-04-22 09:38 | 14.39134 | 120.80808 | 3523 ft | 185 kts | 61° |
| 2026-04-22 09:39 | 14.39773 | 120.81963 | 3418 ft | 185 kts | 60° |
| 2026-04-22 09:39 | 14.40414 | 120.83118 | 3374 ft | 185 kts | 60° |
| 2026-04-22 09:39 | 14.41026 | 120.84216 | 3282 ft | 168 kts | 60° |
| 2026-04-22 09:39 | 14.41581 | 120.85210 | 3153 ft | 150 kts | 60° |
| 2026-04-22 09:40 | 14.42079 | 120.86104 | 3051 ft | 141 kts | 61° |
| 2026-04-22 09:40 | 14.42568 | 120.86981 | 2924 ft | 140 kts | 62° |
| 2026-04-22 09:40 | 14.43051 | 120.87849 | 2686 ft | 139 kts | 62° |
| 2026-04-22 09:40 | 14.43530 | 120.88712 | 2502 ft | 139 kts | 62° |
| 2026-04-22 09:41 | 14.44006 | 120.89574 | 2320 ft | 138 kts | 62° |
| 2026-04-22 09:41 | 14.44487 | 120.90440 | 2133 ft | 138 kts | 62° |
| 2026-04-22 09:41 | 14.44963 | 120.91295 | 1946 ft | 137 kts | 63° |
| 2026-04-22 09:41 | 14.45437 | 120.92146 | 1764 ft | 137 kts | 63° |
| 2026-04-22 09:42 | 14.45909 | 120.92994 | 1593 ft | 137 kts | 64° |
| 2026-04-22 09:42 | 14.46383 | 120.93855 | 1509 ft | 137 kts | 62° |
| 2026-04-22 09:42 | 14.46832 | 120.94659 | 1407 ft | 137 kts | 63° |
| 2026-04-22 09:42 | 14.47296 | 120.95517 | 1210 ft | 136 kts | 65° |
| 2026-04-22 09:43 | 14.47748 | 120.96378 | 954 ft | 136 kts | 64° |
| 2026-04-22 09:43 | 14.48226 | 120.97224 | 704 ft | 135 kts | 62° |
| 2026-04-22 09:43 | 14.48707 | 120.98058 | 497 ft | 135 kts | 64° |
| 2026-04-22 09:43 | 14.49171 | 120.98898 | 336 ft | 134 kts | 64° |
| 2026-04-22 09:44 | 14.49628 | 120.99734 | 183 ft | 133 kts | 62° |
| 2026-04-22 09:44 | 14.50092 | 121.00564 | 38 ft | 130 kts | 62° |
| 2026-04-22 09:44 | 14.50473 | 121.01253 | 39 ft | 87 kts | 60° |
| 2026-04-22 09:44 | 14.50670 | 121.01606 | 49 ft | 19 kts | 60° |
| 2026-04-22 09:45 | 14.50747 | 121.01701 | 51 ft | 12 kts | 42° |
| 2026-04-22 09:45 | 14.50812 | 121.01755 | 52 ft | 9 kts | 36° |
| 2026-04-22 09:45 | 14.50849 | 121.01783 | 52 ft | 7 kts | 32° |
| 2026-04-22 09:45 | 14.50900 | 121.01775 | 52 ft | 9 kts | 320° |
| 2026-04-22 09:46 | 14.50947 | 121.01727 | 54 ft | 10 kts | 304° |
| 2026-04-22 09:46 | 14.50940 | 121.01658 | 57 ft | 10 kts | 242° |
| 2026-04-22 09:46 | 14.50901 | 121.01587 | 60 ft | 12 kts | 240° |
| 2026-04-22 09:46 | 14.50850 | 121.01495 | 60 ft | 16 kts | 240° |
| 2026-04-22 09:47 | 14.50813 | 121.01427 | 57 ft | 5 kts | 253° |
| 2026-04-22 09:47 | 14.50834 | 121.01398 | 58 ft | 4 kts | 330° |
| 2026-04-22 09:47 | 14.50865 | 121.01379 | 60 ft | 5 kts | 330° |
| 2026-04-22 09:47 | 14.50882 | 121.01369 | 61 ft | 0 kts | 331° |